createdAt,value
2022-08-21T00:01:33.854Z,100797.03
2022-08-21T00:04:05.593Z,100784.75
2022-08-21T00:06:33.871Z,100788.94
2022-08-21T00:09:06.111Z,100776.00
2022-08-21T00:11:33.579Z,100782.06
2022-08-21T00:14:00.301Z,100786.44
2022-08-21T00:16:26.769Z,100784.75
2022-08-21T00:18:53.311Z,100783.09
2022-08-21T00:21:19.775Z,100766.16
2022-08-21T00:23:46.416Z,100772.88
2022-08-21T00:26:12.895Z,100772.47
2022-08-21T00:28:39.623Z,100770.59
2022-08-21T00:31:06.420Z,100771.44
2022-08-21T00:33:33.227Z,100769.78
2022-08-21T00:35:59.698Z,100761.69
2022-08-21T00:38:26.172Z,100758.16
2022-08-21T00:41:00.355Z,100757.31
2022-08-21T00:43:46.714Z,100757.31
2022-08-21T00:46:13.193Z,100755.63
2022-08-21T00:48:39.680Z,100767.25
2022-08-21T00:51:23.366Z,100763.72
2022-08-21T00:53:54.319Z,100765.59
2022-08-21T00:56:23.151Z,100756.38
2022-08-21T00:58:49.890Z,100763.06
2022-08-21T01:01:22.446Z,100762.25
2022-08-21T01:03:49.997Z,100772.22
2022-08-21T01:06:17.198Z,100758.41
2022-08-21T01:08:46.812Z,100766.81
2022-08-21T01:11:15.200Z,100750.72
2022-08-21T01:13:46.777Z,100749.66
2022-08-21T01:16:16.471Z,100758.91
2022-08-21T01:18:44.679Z,100756.38
2022-08-21T01:21:19.695Z,100760.75
2022-08-21T01:23:50.450Z,100759.06
2022-08-21T01:26:19.477Z,100660.06
2022-08-21T01:29:01.317Z,100757.41
2022-08-21T01:31:30.225Z,100741.31
2022-08-21T01:33:57.512Z,100753.03
2022-08-21T01:36:25.222Z,100743.00
2022-08-21T01:38:52.024Z,100748.66
2022-08-21T01:41:19.452Z,100746.53
2022-08-21T01:43:46.535Z,100749.66
2022-08-21T01:46:13.691Z,100749.66
2022-08-21T01:48:41.101Z,100749.66
2022-08-21T01:51:07.607Z,100755.06
2022-08-21T01:53:36.658Z,100749.88
2022-08-21T01:56:12.283Z,100757.13
2022-08-21T01:58:40.819Z,100758.16
2022-08-21T02:01:07.746Z,100751.72
2022-08-21T02:03:36.080Z,100744.38
2022-08-21T02:06:05.016Z,100759.19
2022-08-21T02:08:31.721Z,100754.81
2022-08-21T02:10:58.208Z,100753.78
2022-08-21T02:13:24.683Z,100759.19
2022-08-21T02:15:51.511Z,100757.50
2022-08-21T02:18:17.989Z,100749.59
2022-08-21T02:20:48.340Z,100754.81
2022-08-21T02:23:16.087Z,100747.75
2022-08-21T02:25:46.736Z,100743.34
2022-08-21T02:28:15.174Z,100747.91
2022-08-21T02:30:46.128Z,100748.75
2022-08-21T02:33:13.946Z,100740.84
2022-08-21T02:35:44.687Z,100739.00
2022-08-21T02:38:13.940Z,100733.59
2022-08-21T02:40:43.777Z,100723.81
2022-08-21T02:43:16.140Z,100731.06
2022-08-21T02:45:44.495Z,100721.28
2022-08-21T02:48:14.428Z,100722.31
2022-08-21T02:50:44.371Z,100711.69
2022-08-21T02:53:17.294Z,100704.00
2022-08-21T02:55:48.550Z,100707.34
2022-08-21T02:58:18.637Z,100714.78
2022-08-21T03:00:46.046Z,100704.16
2022-08-21T03:03:14.651Z,100705.88
2022-08-21T03:05:41.399Z,100699.59
2022-08-21T03:08:11.232Z,100705.00
2022-08-21T03:10:40.719Z,100700.66
2022-08-21T03:13:07.759Z,100689.06
2022-08-21T03:15:35.029Z,100700.66
2022-08-21T03:18:02.516Z,100688.69
2022-08-21T03:20:29.600Z,100696.25
2022-08-21T03:22:56.676Z,100696.25
2022-08-21T03:25:40.585Z,100691.88
2022-08-21T03:28:13.344Z,100697.25
2022-08-21T03:30:42.117Z,100678.66
2022-08-21T03:33:08.950Z,100680.34
2022-08-21T03:35:38.850Z,100692.03
2022-08-21T03:38:05.632Z,100683.13
2022-08-21T03:40:32.596Z,100664.06
2022-08-21T03:42:59.866Z,100686.19
2022-08-21T03:45:26.925Z,100692.44
2022-08-21T03:48:02.890Z,100694.09
2022-08-21T03:50:34.752Z,100692.44
2022-08-21T03:53:02.001Z,100688.03
2022-08-21T03:55:29.039Z,100686.19
2022-08-21T03:57:55.620Z,100684.50
2022-08-21T04:00:22.387Z,100669.19
2022-08-21T04:02:49.007Z,100681.91
2022-08-21T04:05:28.000Z,100686.94
2022-08-21T04:07:56.365Z,100687.38
2022-08-21T04:10:23.818Z,100669.84
2022-08-21T04:12:50.601Z,100697.56
2022-08-21T04:15:17.118Z,100701.09
2022-08-21T04:17:43.713Z,100703.78
2022-08-21T04:20:10.248Z,100692.59
2022-08-21T04:22:36.703Z,100708.53
2022-08-21T04:25:03.539Z,100712.06
2022-08-21T04:27:29.993Z,100711.22
2022-08-21T04:29:56.456Z,100706.84
2022-08-21T04:32:26.814Z,100707.88
2022-08-21T04:35:05.678Z,100714.28
2022-08-21T04:37:32.200Z,100708.06
2022-08-21T04:39:59.228Z,100710.09
2022-08-21T04:42:26.019Z,100705.56
2022-08-21T04:44:52.946Z,100713.84
2022-08-21T04:47:19.501Z,100695.69
2022-08-21T04:49:46.383Z,100708.44
2022-08-21T04:52:16.614Z,100707.78
2022-08-21T04:54:46.220Z,100705.94
2022-08-21T04:57:14.626Z,100706.75
2022-08-21T04:59:46.894Z,100699.69
2022-08-21T05:02:14.826Z,100693.66
2022-08-21T05:04:52.062Z,100688.44
2022-08-21T05:07:42.258Z,100692.59
2022-08-21T05:10:12.654Z,100693.47
2022-08-21T05:12:42.865Z,100697.00
2022-08-21T05:15:12.854Z,100687.22
2022-08-21T05:17:40.883Z,100691.78
2022-08-21T05:20:08.041Z,100692.59
2022-08-21T05:22:34.528Z,100684.63
2022-08-21T05:25:01.015Z,100692.59
2022-08-21T05:27:30.607Z,100698.88
2022-08-21T05:29:58.355Z,100696.16
2022-08-21T05:32:24.962Z,100695.13
2022-08-21T05:34:51.566Z,100696.16
2022-08-21T05:37:18.061Z,100682.75
2022-08-21T05:40:21.805Z,100695.97
2022-08-21T05:42:31.546Z,100687.03
2022-08-21T05:44:58.011Z,100692.44
2022-08-21T05:47:25.766Z,100695.13
2022-08-21T05:49:52.266Z,100687.88
2022-08-21T05:52:22.425Z,100690.56
2022-08-21T05:54:49.099Z,100698.66
2022-08-21T05:57:15.560Z,100682.75
2022-08-21T05:59:42.183Z,100677.53
2022-08-21T06:02:12.131Z,100687.88
2022-08-21T06:04:40.046Z,100691.44
2022-08-21T06:07:07.455Z,100687.88
2022-08-21T06:09:34.376Z,100693.25
2022-08-21T06:12:11.655Z,100687.03
2022-08-21T06:14:39.914Z,100689.72
2022-08-21T06:17:13.199Z,100695.78
2022-08-21T06:19:40.020Z,100699.53
2022-08-21T06:22:06.487Z,100683.25
2022-08-21T06:24:33.551Z,100698.47
2022-08-21T06:27:06.052Z,100700.34
2022-08-21T06:29:44.328Z,100693.09
2022-08-21T06:32:12.600Z,100687.22
2022-08-21T06:34:41.302Z,100633.28
2022-08-21T06:37:08.395Z,100690.22
2022-08-21T06:39:34.966Z,100666.56
2022-08-21T06:42:01.603Z,100676.81
2022-08-21T06:44:31.410Z,100692.06
2022-08-21T06:46:58.337Z,100680.16
2022-08-21T06:49:24.818Z,100679.97
2022-08-21T06:51:52.331Z,100679.13
2022-08-21T06:54:19.031Z,100678.59
2022-08-21T06:56:45.640Z,100638.88
2022-08-21T06:59:12.089Z,100668.41
2022-08-21T07:01:42.247Z,100670.09
2022-08-21T07:04:08.817Z,100665.72
2022-08-21T07:06:35.372Z,100670.09
2022-08-21T07:09:02.717Z,100662.84
2022-08-21T07:11:29.194Z,100656.59
2022-08-21T07:13:57.452Z,100658.28
2022-08-21T07:16:24.372Z,100652.03
2022-08-21T07:18:51.083Z,100640.34
2022-08-21T07:21:17.674Z,100650.19
2022-08-21T07:23:49.067Z,100637.63
2022-08-21T07:26:19.055Z,100645.44
2022-08-21T07:28:45.649Z,100642.53
2022-08-21T07:31:15.315Z,100636.31
2022-08-21T07:33:42.754Z,100639.84
2022-08-21T07:36:10.423Z,100637.97
2022-08-21T07:38:37.575Z,100644.03
2022-08-21T07:41:11.639Z,100644.22
2022-08-21T07:43:46.010Z,100633.63
2022-08-21T07:46:13.610Z,100632.22
2022-08-21T07:48:45.578Z,100632.88
2022-08-21T07:51:15.297Z,100636.59
2022-08-21T07:53:42.029Z,100627.84
2022-08-21T07:56:09.357Z,100637.22
2022-08-21T07:58:35.800Z,100637.22
2022-08-21T08:01:02.435Z,100632.88
2022-08-21T08:03:29.467Z,100638.06
2022-08-21T08:05:57.533Z,100651.38
2022-08-21T08:08:24.703Z,100640.75
2022-08-21T08:10:52.419Z,100630.63
2022-08-21T08:13:18.874Z,100630.81
2022-08-21T08:15:45.371Z,100630.47
2022-08-21T08:18:11.833Z,100624.88
2022-08-21T08:20:38.311Z,100626.06
2022-08-21T08:23:04.886Z,100621.16
2022-08-21T08:25:36.411Z,100611.47
2022-08-21T08:28:05.598Z,100628.22
2022-08-21T08:30:45.243Z,100612.94
2022-08-21T08:33:11.670Z,100607.81
2022-08-21T08:35:39.122Z,100615.56
2022-08-21T08:38:06.432Z,100623.72
2022-08-21T08:41:08.560Z,100621.69
2022-08-21T08:43:35.516Z,100612.53
2022-08-21T08:46:16.783Z,100609.25
2022-08-21T08:49:12.486Z,100593.28
2022-08-21T08:52:00.655Z,100590.75
2022-08-21T08:54:34.302Z,100584.25
2022-08-21T08:57:02.688Z,100595.50
2022-08-21T08:59:40.421Z,100589.28
2022-08-21T09:02:09.404Z,100597.19
2022-08-21T09:04:35.947Z,100602.28
2022-08-21T09:07:14.831Z,100541.50
2022-08-21T09:10:00.931Z,100611.72
2022-08-21T09:12:56.264Z,100608.56
2022-08-21T09:15:46.333Z,100606.72
2022-08-21T09:18:35.260Z,100596.91
2022-08-21T09:21:13.238Z,100596.91
2022-08-21T09:24:21.650Z,100597.75
2022-08-21T09:26:53.844Z,100594.03
2022-08-21T09:29:24.028Z,100601.09
2022-08-21T09:31:50.568Z,100588.19
2022-08-21T09:34:27.122Z,100594.50
2022-08-21T09:36:53.822Z,100596.75
2022-08-21T09:39:29.047Z,100602.59
2022-08-21T09:42:01.378Z,100610.06
2022-08-21T09:44:30.750Z,100602.97
2022-08-21T09:46:57.546Z,100601.31
2022-08-21T09:49:43.934Z,100601.25
2022-08-21T09:52:26.180Z,100611.25
2022-08-21T09:54:56.302Z,100608.75
2022-08-21T09:57:42.829Z,100612.47
2022-08-21T10:00:21.335Z,100614.09
2022-08-21T10:02:47.954Z,100632.78
2022-08-21T10:05:24.033Z,100632.78
2022-08-21T10:07:51.570Z,100636.50
2022-08-21T10:10:26.611Z,100608.19
2022-08-21T10:12:56.251Z,100607.53
2022-08-21T10:15:56.332Z,100599.63
2022-08-21T10:18:35.875Z,100611.00
2022-08-21T10:21:12.125Z,100621.13
2022-08-21T10:24:03.173Z,100629.13
2022-08-21T10:26:51.548Z,100621.03
2022-08-21T10:29:48.827Z,100619.38
2022-08-21T10:32:25.643Z,100629.13
2022-08-21T10:35:14.194Z,100630.81
2022-08-21T10:37:56.803Z,100623.72
2022-08-21T10:40:35.297Z,100625.25
2022-08-21T10:43:29.797Z,100610.75
2022-08-21T10:46:09.915Z,100609.69
2022-08-21T10:48:55.055Z,100613.44
2022-08-21T10:51:45.534Z,100625.72
2022-08-21T10:54:23.616Z,100618.44
2022-08-21T10:56:57.571Z,100615.56
2022-08-21T10:59:37.997Z,100609.13
2022-08-21T11:02:20.645Z,100608.88
2022-08-21T11:04:58.177Z,100613.50
2022-08-21T11:07:38.491Z,100608.13
2022-08-21T11:10:16.226Z,100627.84
2022-08-21T11:12:51.681Z,100622.44
2022-08-21T11:15:28.885Z,100606.25
2022-08-21T11:18:08.543Z,100584.81
2022-08-21T11:20:47.755Z,100576.28
2022-08-21T11:23:27.104Z,100579.66
2022-08-21T11:26:10.530Z,100581.31
2022-08-21T11:28:47.206Z,100593.41
2022-08-21T11:31:33.410Z,100586.13
2022-08-21T11:34:29.969Z,100585.94
2022-08-21T11:37:07.183Z,100569.94
2022-08-21T11:39:50.365Z,100573.53
2022-08-21T11:42:24.688Z,100565.06
2022-08-21T11:45:22.295Z,100570.88
2022-08-21T11:48:39.837Z,100575.09
2022-08-21T11:51:13.122Z,100560.66
2022-08-21T11:54:25.327Z,100575.91
2022-08-21T11:57:06.985Z,100587.38
2022-08-21T12:00:10.498Z,100582.78
2022-08-21T12:02:43.979Z,100577.41
2022-08-21T12:05:24.337Z,100579.09
2022-08-21T12:08:05.577Z,100581.56
2022-08-21T12:10:35.889Z,100580.75
2022-08-21T12:13:23.372Z,100569.75
2022-08-21T12:16:36.107Z,100583.91
2022-08-21T12:19:08.337Z,100589.09
2022-08-21T12:21:48.116Z,100616.09
2022-08-21T12:24:14.515Z,100616.09
2022-08-21T12:26:54.672Z,100616.50
2022-08-21T12:29:27.215Z,100614.19
2022-08-21T12:32:23.467Z,100620.59
2022-08-21T12:35:25.020Z,100613.53
2022-08-21T12:38:09.361Z,100602.03
2022-08-21T12:40:44.160Z,100619.31
2022-08-21T12:43:22.147Z,100622.19
2022-08-21T12:45:51.935Z,100623.22
2022-08-21T12:48:27.772Z,100603.44
2022-08-21T12:51:08.352Z,100611.78
2022-08-21T12:53:59.105Z,100601.16
2022-08-21T12:56:29.549Z,100593.66
2022-08-21T12:59:04.176Z,100597.44
2022-08-21T13:01:41.324Z,100602.03
2022-08-21T13:04:13.751Z,100601.16
2022-08-21T13:06:44.495Z,100598.47
2022-08-21T13:09:14.582Z,100575.81
2022-08-21T13:11:43.230Z,100610.97
2022-08-21T13:14:45.382Z,100608.25
2022-08-21T13:17:13.798Z,100605.56
2022-08-21T13:20:10.790Z,100603.22
2022-08-21T13:22:44.988Z,100598.41
2022-08-21T13:25:14.222Z,100603.69
2022-08-21T13:27:41.092Z,100599.09
2022-08-21T13:30:19.939Z,100594.56
2022-08-21T13:32:52.450Z,100598.09
2022-08-21T13:35:26.776Z,100582.72
2022-08-21T13:37:55.170Z,100575.03
2022-08-21T13:40:32.826Z,100582.34
2022-08-21T13:43:01.510Z,100586.13
2022-08-21T13:45:33.069Z,100586.78
2022-08-21T13:48:03.215Z,100577.00
2022-08-21T13:50:36.197Z,100572.25
2022-08-21T13:53:06.134Z,100590.59
2022-08-21T13:55:44.342Z,100580.41
2022-08-21T13:58:12.664Z,100578.69
2022-08-21T14:00:51.538Z,100580.22
2022-08-21T14:03:30.951Z,100588.31
2022-08-21T14:05:57.813Z,100613.66
2022-08-21T14:08:38.291Z,100623.63
2022-08-21T14:11:10.383Z,100628.19
2022-08-21T14:13:42.434Z,100646.09
2022-08-21T14:16:19.666Z,100661.63
2022-08-21T14:18:50.930Z,100665.34
2022-08-21T14:21:28.704Z,100647.22
2022-08-21T14:24:09.339Z,100657.06
2022-08-21T14:26:38.664Z,100671.22
2022-08-21T14:29:10.647Z,100659.38
2022-08-21T14:31:43.048Z,100649.44
2022-08-21T14:34:19.056Z,100645.88
2022-08-21T14:36:46.486Z,100651.34
2022-08-21T14:39:13.044Z,100645.75
2022-08-21T14:41:39.591Z,100657.19
2022-08-21T14:44:09.795Z,100644.91
2022-08-21T14:46:48.738Z,100653.28
2022-08-21T14:49:23.984Z,100652.38
2022-08-21T14:51:54.677Z,100663.25
2022-08-21T14:54:23.196Z,100666.13
2022-08-21T14:56:59.620Z,100668.00
2022-08-21T14:59:26.750Z,100661.97
2022-08-21T15:01:53.372Z,100661.13
2022-08-21T15:04:19.851Z,100628.88
2022-08-21T15:06:46.370Z,100666.94
2022-08-21T15:09:12.883Z,100656.66
2022-08-21T15:11:42.241Z,100667.00
2022-08-21T15:14:21.762Z,100655.72
2022-08-21T15:16:49.462Z,100665.50
2022-08-21T15:19:16.060Z,100656.97
2022-08-21T15:21:42.662Z,100667.81
2022-08-21T15:24:09.542Z,100665.31
2022-08-21T15:26:36.663Z,100666.53
2022-08-21T15:29:06.680Z,100651.47
2022-08-21T15:31:33.934Z,100651.47
2022-08-21T15:34:00.412Z,100672.75
2022-08-21T15:36:26.923Z,100672.13
2022-08-21T15:38:53.403Z,100676.69
2022-08-21T15:41:19.989Z,100677.09
2022-08-21T15:43:50.949Z,100674.31
2022-08-21T15:46:19.997Z,100683.13
2022-08-21T15:48:47.148Z,100678.75
2022-08-21T15:51:16.769Z,100671.41
2022-08-21T15:53:43.700Z,100679.72
2022-08-21T15:56:22.378Z,100687.59
2022-08-21T15:58:50.237Z,100682.19
2022-08-21T16:01:17.120Z,100682.19
2022-08-21T16:03:49.550Z,100675.72
2022-08-21T16:06:16.043Z,100690.31
2022-08-21T16:08:42.852Z,100690.13
2022-08-21T16:11:09.329Z,100677.78
2022-08-21T16:13:47.775Z,100699.25
2022-08-21T16:16:22.396Z,100695.94
2022-08-21T16:18:50.468Z,100695.28
2022-08-21T16:21:19.871Z,100702.34
2022-08-21T16:23:46.403Z,100706.91
2022-08-21T16:26:14.812Z,100704.56
2022-08-21T16:28:46.418Z,100715.38
2022-08-21T16:31:15.695Z,100714.34
2022-08-21T16:33:50.282Z,100709.91
2022-08-21T16:36:20.724Z,100720.97
2022-08-21T16:38:48.431Z,100705.78
2022-08-21T16:41:19.613Z,100717.88
2022-08-21T16:43:46.630Z,100704.25
2022-08-21T16:46:15.887Z,100708.41
2022-08-21T16:48:45.004Z,100723.47
2022-08-21T16:51:13.749Z,100714.28
2022-08-21T16:53:41.170Z,100717.81
2022-08-21T16:56:09.363Z,100689.19
2022-08-21T16:58:39.334Z,100728.88
2022-08-21T17:01:10.790Z,100724.69
2022-08-21T17:03:43.635Z,100730.31
2022-08-21T17:06:10.495Z,100720.44
2022-08-21T17:08:37.796Z,100734.03
2022-08-21T17:11:07.446Z,100731.06
2022-08-21T17:13:34.767Z,100731.88
2022-08-21T17:16:01.273Z,100728.34
2022-08-21T17:18:28.010Z,100722.66
2022-08-21T17:20:54.873Z,100732.06
2022-08-21T17:23:21.671Z,100729.56
2022-08-21T17:25:50.940Z,100730.75
2022-08-21T17:28:23.823Z,100735.72
2022-08-21T17:30:56.373Z,100731.34
2022-08-21T17:33:25.383Z,100731.47
2022-08-21T17:35:52.654Z,100745.22
2022-08-21T17:38:19.723Z,100747.28
2022-08-21T17:40:48.108Z,100751.19
2022-08-21T17:43:15.726Z,100748.84
2022-08-21T17:45:44.774Z,100752.28
2022-08-21T17:48:11.575Z,100742.59
2022-08-21T17:50:39.344Z,100762.22
2022-08-21T17:53:05.953Z,100722.03
2022-08-21T17:55:33.978Z,100761.47
2022-08-21T17:58:02.259Z,100756.84
2022-08-21T18:00:29.691Z,100770.97
2022-08-21T18:03:01.992Z,100770.13
2022-08-21T18:05:29.239Z,100778.44
2022-08-21T18:07:56.066Z,100777.78
2022-08-21T18:10:23.062Z,100781.66
2022-08-21T18:12:50.123Z,100779.16
2022-08-21T18:15:18.139Z,100774.66
2022-08-21T18:17:48.145Z,100777.94
2022-08-21T18:20:18.629Z,100791.69
2022-08-21T18:22:45.854Z,100797.47
2022-08-21T18:25:12.862Z,100800.53
2022-08-21T18:27:42.555Z,100802.28
2022-08-21T18:30:10.656Z,100799.41
2022-08-21T18:32:37.399Z,100810.75
2022-08-21T18:35:05.500Z,100803.38
2022-08-21T18:37:32.164Z,100815.84
2022-08-21T18:39:59.075Z,100819.06
2022-08-21T18:42:28.561Z,100825.66
2022-08-21T18:45:00.719Z,100814.28
2022-08-21T18:47:39.723Z,100824.69
2022-08-21T18:50:10.595Z,100828.75
2022-08-21T18:52:38.159Z,100828.09
2022-08-21T18:55:13.234Z,100816.06
2022-08-21T18:57:46.610Z,100814.75
2022-08-21T19:00:19.297Z,100835.63
2022-08-21T19:02:45.871Z,100836.31
2022-08-21T19:05:15.955Z,100842.72
2022-08-21T19:07:44.669Z,100844.09
2022-08-21T19:10:27.796Z,100849.19
2022-08-21T19:12:57.128Z,100846.53
2022-08-21T19:15:24.031Z,100856.31
2022-08-21T19:17:55.758Z,100850.94
2022-08-21T19:20:29.373Z,100853.28
2022-08-21T19:22:56.619Z,100849.63
2022-08-21T19:25:32.892Z,100861.91
2022-08-21T19:28:03.010Z,100847.97
2022-08-21T19:30:30.818Z,100838.84
2022-08-21T19:32:57.974Z,100859.56
2022-08-21T19:35:26.734Z,100860.91
2022-08-21T19:37:53.243Z,100859.72
2022-08-21T19:40:22.219Z,100863.63
2022-08-21T19:42:49.144Z,100864.81
2022-08-21T19:45:15.611Z,100864.81
2022-08-21T19:47:48.332Z,100853.06
2022-08-21T19:50:21.319Z,100864.16
2022-08-21T19:52:50.743Z,100863.16
2022-08-21T19:55:18.334Z,100866.69
2022-08-21T19:57:46.031Z,100852.88
2022-08-21T20:00:13.854Z,100864.16
2022-08-21T20:02:48.090Z,100870.03
2022-08-21T20:05:25.385Z,100874.41
2022-08-21T20:08:05.958Z,100866.53
2022-08-21T20:10:40.339Z,100879.63
2022-08-21T20:13:11.254Z,100885.50
2022-08-21T20:15:37.752Z,100880.28
2022-08-21T20:18:04.708Z,100895.59
2022-08-21T20:20:35.369Z,100897.13
2022-08-21T20:23:02.091Z,100892.56
2022-08-21T20:25:38.476Z,100893.03
2022-08-21T20:28:06.416Z,100884.94
2022-08-21T20:30:34.702Z,100885.16
2022-08-21T20:33:01.284Z,100893.38
2022-08-21T20:35:27.915Z,100889.63
2022-08-21T20:37:59.019Z,100887.78
2022-08-21T20:40:29.187Z,100891.13
2022-08-21T20:42:59.366Z,100892.00
2022-08-21T20:45:30.399Z,100894.50
2022-08-21T20:48:25.831Z,100890.97
2022-08-21T20:50:55.276Z,100888.09
2022-08-21T20:53:43.992Z,100888.09
2022-08-21T20:56:20.885Z,100884.59
2022-08-21T20:59:06.290Z,100885.41
2022-08-21T21:01:34.510Z,100886.41
2022-08-21T21:04:19.457Z,100892.16
2022-08-21T21:06:49.798Z,100856.22
2022-08-21T21:09:23.211Z,100898.72
2022-08-21T21:11:58.862Z,100885.41
2022-08-21T21:14:31.790Z,100881.03
2022-08-21T21:17:06.221Z,100899.34
2022-08-21T21:19:43.423Z,100889.44
2022-08-21T21:22:15.699Z,100892.97
2022-08-21T21:24:51.492Z,100902.72
2022-08-21T21:27:37.540Z,100891.09
2022-08-21T21:30:26.503Z,100897.31
2022-08-21T21:32:53.035Z,100887.56
2022-08-21T21:35:32.639Z,100873.97
2022-08-21T21:38:28.880Z,100895.50
2022-08-21T21:41:16.715Z,100895.16
2022-08-21T21:43:47.719Z,100890.09
2022-08-21T21:46:30.959Z,100890.94
2022-08-21T21:49:03.424Z,100896.50
2022-08-21T21:52:00.062Z,100894.63
2022-08-21T21:54:44.978Z,100894.63
2022-08-21T21:57:20.392Z,100892.31
2022-08-21T22:00:06.692Z,100898.19
2022-08-21T22:02:38.872Z,100908.09
2022-08-21T22:05:35.417Z,100908.97
2022-08-21T22:08:30.267Z,100919.75
2022-08-21T22:14:15.071Z,100925.97
2022-08-21T22:16:45.287Z,100922.63
2022-08-21T22:19:26.479Z,100931.53
2022-08-21T22:22:14.133Z,100927.16
2022-08-21T22:24:47.522Z,100923.31
2022-08-21T22:27:26.374Z,100939.78
2022-08-21T22:29:57.564Z,100935.25
2022-08-21T22:32:29.690Z,100940.81
2022-08-21T22:35:02.356Z,100934.41
2022-08-21T22:37:41.838Z,100933.56
2022-08-21T22:40:12.643Z,100927.03
2022-08-21T22:42:42.252Z,100937.28
2022-08-21T22:45:12.433Z,100891.72
2022-08-21T22:47:47.408Z,100937.28
2022-08-21T22:50:25.892Z,100938.13
2022-08-21T22:53:02.570Z,100940.81
2022-08-21T22:55:40.637Z,100938.13
2022-08-21T22:58:23.907Z,100937.28
2022-08-21T23:01:06.718Z,100935.44
2022-08-21T23:03:43.851Z,100939.97
2022-08-21T23:06:27.636Z,100929.72
2022-08-21T23:08:55.112Z,100940.81
2022-08-21T23:11:42.740Z,100937.81
2022-08-21T23:14:14.242Z,100939.97
2022-08-21T23:16:47.560Z,100947.22
2022-08-21T23:19:34.465Z,100955.31
2022-08-21T23:22:32.434Z,100939.16
2022-08-21T23:25:26.467Z,100944.53
2022-08-21T23:27:59.640Z,100947.41
2022-08-21T23:30:48.124Z,100950.94
2022-08-21T23:33:31.840Z,100944.72
2022-08-21T23:36:31.214Z,100941.19
2022-08-21T23:39:20.552Z,100936.78
2022-08-21T23:42:16.351Z,100927.22
2022-08-21T23:45:13.520Z,100945.72
2022-08-21T23:47:40.670Z,100946.72
2022-08-21T23:50:25.843Z,100949.44
2022-08-21T23:53:21.698Z,100951.28
2022-08-21T23:56:12.910Z,100950.44
2022-08-21T23:58:56.096Z,100947.72
